Terminal Aerodrome Forecast
Issued by NWS Grand Forks, ND

Home | Current Version | Previous Version | Text Only | Print | Product List | Glossary Off
Versions: 1 2 3 4 5 6 7 8 9 10 11 12 13 14 15 16 17 18 19 20 21 22 23 24

000
FTUS43 KFGF 242100 AAC
TAFGFK
TAF AMD
KGFK 242140Z 2422/2518 36012KT P6SM BKN009 OVC025
     FM250000 01013KT 5SM -SN BR OVC008
     FM251000 36010KT P6SM BKN025=

USA.gov is the U.S. government's official web portal to all federal, state and local government web resources and services.